Latest Weather Observations for Carnarvon

IDW60801

Issued at 6:33 pm WST Monday 17 December 2018 (issued every 10 minutes, with the page automatically refreshed every 10 minutes)

About weather observations | Map of weather stations | Latest weather observations for WA | Other Formats
Station Details ID: 006011 Name: CARNARVON AIRPORT Lat: -24.89 Lon: 113.67 Height: 4.0 m
Data from the previous 72 hours. | See also: Recent months at Carnarvon
Date/Time
WST
Temp
°C
App
Temp
°C
Dew
Point
°C
Rel
Hum
%
Delta-T
°C
Wind Press
QNH
hPa
Press
MSL
hPa
Rain since
9am
mm
Dir  Spd
km/h
Gust
km/h
Spd
kts
Gust
kts
17/06:30pm 22.6 17.5 17.7 74 3.0 SSW 41 52 22 28 1011.4 - 0.0
17/06:00pm 23.4 18.5 18.1 72 3.3 SSW 41 52 22 28 1011.3 1011.3 0.0
17/05:30pm 23.4 17.6 16.9 67 4.0 SSW 43 57 23 31 1011.1 - 0.0
17/05:20pm 23.4 17.5 16.7 66 4.1 SSW 43 61 23 33 1011.1 - 0.0
17/05:00pm 24.0 18.3 17.3 66 4.2 SSW 43 56 23 30 1011.1 - 0.0
17/04:30pm 24.7 19.0 17.2 63 4.7 SSW 43 56 23 30 1010.9 - 0.0
17/04:00pm 25.4 20.4 17.1 60 5.2 SSW 39 50 21 27 1011.2 - 0.0
17/03:30pm 24.7 19.0 16.2 59 5.2 SSW 41 54 22 29 1011.3 - 0.0
17/03:00pm 25.0 19.3 16.2 58 5.4 SSW 41 52 22 28 1011.6 1011.6 0.0
17/02:30pm 25.3 19.2 16.2 57 5.6 SSW 43 52 23 28 1011.9 - 0.0
17/02:00pm 26.1 20.7 16.9 57 5.7 SSW 41 52 22 28 1012.4 - 0.0
17/01:30pm 24.7 19.0 16.2 59 5.2 SSW 41 56 22 30 1012.8 - 0.0
17/01:00pm 26.5 21.4 16.7 55 6.1 SSW 39 54 21 29 1013.1 - 0.0
17/12:30pm 24.7 19.8 16.4 60 5.1 SSW 37 52 20 28 1013.4 - 0.0
17/12:00pm 25.9 20.5 15.9 54 6.1 SSW 39 52 21 28 1013.6 1013.6 0.0
17/11:30am 25.0 19.3 16.2 58 5.4 SSW 41 48 22 26 1013.7 - 0.0
17/11:00am 24.3 18.6 15.2 57 5.5 SSW 39 48 21 26 1014.0 - 0.0
17/10:30am 24.0 19.5 16.3 62 4.7 SSW 35 44 19 24 1014.3 - 0.0
17/10:00am 24.3 19.8 16.3 61 4.9 SSW 35 43 19 23 1014.4 - 0.0
17/09:30am 24.1 19.6 16.4 62 4.7 SSW 35 46 19 25 1014.6 - 0.0
17/09:00am 23.5 18.8 15.8 62 4.6 SSW 35 44 19 24 1014.4 1014.4 0.2
17/08:30am 22.6 18.8 17.1 71 3.4 SSW 33 44 18 24 1014.2 - 0.2
17/08:00am 22.2 17.4 16.5 70 3.5 SSW 37 48 20 26 1014.0 - 0.2
17/07:30am 21.8 17.4 16.7 73 3.1 S 35 46 19 25 1013.5 - 0.2
17/07:00am 21.3 17.6 16.9 76 2.7 SSW 32 43 17 23 1013.3 - 0.2
17/06:30am 20.9 16.4 16.3 75 2.8 S 35 44 19 24 1012.9 - 0.2
17/06:00am 20.7 16.7 16.3 76 2.6 SSW 32 44 17 24 1012.5 1012.5 0.2
17/05:30am 20.7 16.3 15.7 73 3.0 S 33 44 18 24 1012.1 - 0.2
17/05:00am 20.6 16.2 16.6 78 2.4 S 35 46 19 25 1012.0 - 0.2
17/04:30am 20.6 17.3 16.0 75 2.8 SSW 28 41 15 22 1011.7 - 0.2
17/04:00am 20.4 15.7 15.8 75 2.7 S 35 48 19 26 1011.6 - 0.2
17/03:30am 20.2 15.4 15.6 75 2.7 S 35 50 19 27 1011.5 - 0.2
17/03:00am 20.2 16.0 16.2 78 2.4 SSW 33 44 18 24 1011.4 1011.4 0.2
17/02:30am 20.3 16.1 16.1 77 2.5 S 33 46 18 25 1011.1 - 0.2
17/02:00am 20.4 15.4 16.2 77 2.5 S 37 50 20 27 1010.9 - 0.2
17/01:30am 20.5 15.1 16.1 76 2.6 S 39 50 21 27 1011.3 - 0.2
17/01:00am 20.6 15.7 16.4 77 2.5 SSW 37 50 20 27 1011.3 - 0.2
17/12:30am 20.5 15.1 16.1 76 2.6 S 39 50 21 27 1011.3 - 0.2
17/12:00am 20.6 16.6 16.8 79 2.3 S 33 44 18 24 1011.6 1011.6 0.2
 
Date/Time
WST
Temp
°C
App
Temp
°C
Dew
Point
°C
Rel
Hum
%
Delta-T
°C
Wind Press
QNH
hPa
Press
MSL
hPa
Rain since
9am
mm
Dir  Spd
km/h
Gust
km/h
Spd
kts
Gust
kts
16/11:30pm 20.6 15.6 16.2 76 2.6 S 37 48 20 26 1011.7 - 0.2
16/11:00pm 20.9 16.1 16.5 76 2.7 S 37 48 20 26 1011.9 - 0.2
16/10:30pm 20.7 16.2 16.5 77 2.5 SSW 35 44 19 24 1011.9 - 0.2
16/10:00pm 20.6 15.0 16.6 78 2.4 SSW 41 52 22 28 1012.0 - 0.2
16/09:30pm 20.4 16.2 17.2 82 2.0 SSW 35 48 19 26 1011.8 - 0.2
16/09:00pm 20.5 16.0 16.5 78 2.4 SSW 35 48 19 26 1011.5 1011.5 0.0
16/08:30pm 20.4 15.7 16.8 80 2.2 SSW 37 50 20 27 1011.5 - 0.0
16/08:06pm 20.6 16.3 17.0 80 2.2 SSW 35 54 19 29 1011.3 - 0.0
16/08:00pm 20.6 15.5 16.8 79 2.3 SSW 39 52 21 28 1011.3 - 0.0
16/07:36pm 20.6 14.8 16.0 75 2.8 SSW 41 63 22 34 1011.0 - 0.0
16/07:30pm 20.9 15.8 16.7 77 2.5 SSW 39 54 21 29 1010.9 - 0.0
16/07:00pm 20.5 15.2 16.3 77 2.5 SSW 39 52 21 28 1010.8 - 0.0
16/06:30pm 20.9 15.1 16.1 74 2.9 SSW 41 52 22 28 1010.5 - 0.0
16/06:00pm 21.3 15.4 15.8 71 3.3 SW 41 56 22 30 1010.2 1010.2 0.0
16/05:41pm 22.0 16.4 15.4 66 3.9 SW 39 59 21 32 1010.0 - 0.0
16/05:30pm 21.8 16.9 15.4 67 3.8 SW 35 50 19 27 1010.0 - 0.0
16/05:05pm 22.6 16.9 15.2 63 4.4 SSW 39 57 21 31 1009.8 - 0.0
16/05:00pm 22.5 17.3 16.5 69 3.6 SW 39 50 21 27 1009.9 - 0.0
16/04:30pm 22.9 17.0 14.7 60 4.8 SW 39 57 21 31 1009.8 - 0.0
16/04:25pm 23.4 18.3 14.7 58 5.2 SW 35 57 19 31 1009.8 - 0.0
16/04:00pm 22.8 16.9 14.6 60 4.8 SW 39 52 21 28 1009.8 - 0.0
16/03:30pm 22.5 16.2 13.6 57 5.2 SW 39 52 21 28 1010.0 - 0.0
16/03:00pm 24.0 18.2 13.8 53 6.0 SW 37 52 20 28 1010.3 1010.3 0.0
16/02:30pm 24.5 18.0 12.8 48 6.7 SW 39 50 21 27 1010.4 - 0.0
16/02:00pm 23.9 18.4 13.7 53 6.0 SW 35 48 19 26 1010.4 - 0.0
16/01:30pm 24.5 18.1 14.3 53 6.0 SW 41 54 22 29 1010.6 - 0.0
16/01:00pm 24.6 18.4 13.8 51 6.3 SW 39 56 21 30 1010.9 - 0.0
16/12:46pm 24.8 19.4 14.9 54 5.9 SW 37 56 20 30 1011.0 - 0.0
16/12:30pm 23.7 17.4 13.6 53 5.9 SW 39 50 21 27 1011.1 - 0.0
16/12:00pm 24.3 18.2 12.9 49 6.6 SW 37 50 20 27 1011.2 1011.2 0.0
16/11:30am 23.9 18.8 15.7 60 5.0 SW 37 48 20 26 1011.2 - 0.0
16/11:00am 22.4 18.8 17.3 73 3.1 SSW 32 43 17 23 1011.4 - 0.0
16/10:58am 22.6 19.3 17.9 75 2.9 SSW 32 43 17 23 1011.4 - 0.0
16/10:48am 20.7 17.2 17.5 82 2.0 SW 32 46 17 25 1011.5 - 0.0
16/10:30am 23.4 19.8 16.2 64 4.4 SSW 30 39 16 21 1011.4 - 0.0
16/10:00am 23.2 19.1 16.5 66 4.1 SSW 33 43 18 23 1011.4 - 0.0
16/09:30am 23.6 20.3 16.1 62 4.6 SSW 28 37 15 20 1011.3 - 0.0
16/09:00am 23.3 19.8 15.6 62 4.6 SSW 28 35 15 19 1011.4 1011.4 0.0
16/08:30am 22.7 18.7 15.3 63 4.4 SSW 30 41 16 22 1011.3 - 0.0
16/08:00am 22.5 18.7 15.8 66 4.0 S 30 37 16 20 1011.2 - 0.0
16/07:30am 21.3 18.1 16.3 73 3.0 S 28 39 15 21 1011.0 - 0.0
16/07:00am 21.8 19.0 16.3 71 3.3 S 26 33 14 18 1010.7 - 0.0
16/06:30am 21.0 18.0 15.8 72 3.1 S 26 37 14 20 1010.5 - 0.0
16/06:00am 20.4 16.7 15.0 71 3.2 S 28 39 15 21 1010.1 1010.1 0.0
16/05:30am 20.2 16.3 15.4 74 2.8 S 30 41 16 22 1009.8 - 0.0
16/05:00am 20.2 16.3 15.4 74 2.8 S 30 39 16 21 1009.5 - 0.0
16/04:30am 20.5 15.5 15.1 71 3.2 S 35 50 19 27 1009.4 - 0.0
16/04:00am 20.4 16.5 15.4 73 3.0 S 30 41 16 22 1009.2 - 0.0
16/03:30am 20.6 16.3 15.4 72 3.1 S 32 41 17 22 1009.1 - 0.0
16/03:00am 20.6 15.5 14.9 70 3.4 SSW 35 48 19 26 1009.2 1009.2 0.0
16/02:30am 20.6 15.3 15.4 72 3.1 S 37 48 20 26 1009.0 - 0.0
16/02:13am 20.5 15.3 14.6 69 3.4 SSW 35 54 19 29 1009.0 - 0.0
16/02:00am 20.6 16.1 15.4 72 3.1 SSW 33 46 18 25 1009.0 - 0.0
16/01:30am 20.7 16.4 15.5 72 3.1 SSW 32 44 17 24 1008.9 - 0.0
16/01:00am 21.0 16.2 16.6 76 2.7 SSW 37 46 20 25 1008.9 - 0.0
16/12:30am 20.7 15.6 14.8 69 3.5 SSW 35 48 19 26 1009.0 - 0.0
16/12:00am 20.8 15.9 15.4 71 3.2 SSW 35 46 19 25 1009.1 1009.1 0.0
 
Date/Time
WST
Temp
°C
App
Temp
°C
Dew
Point
°C
Rel
Hum
%
Delta-T
°C
Wind Press
QNH
hPa
Press
MSL
hPa
Rain since
9am
mm
Dir  Spd
km/h
Gust
km/h
Spd
kts
Gust
kts
15/11:30pm 21.0 17.7 16.0 73 3.0 S 28 39 15 21 1009.3 - 0.0
15/11:00pm 20.9 16.4 15.0 69 3.5 S 32 39 17 21 1009.4 - 0.0
15/10:30pm 20.8 15.9 14.2 66 3.8 S 33 44 18 24 1009.5 - 0.0
15/10:00pm 21.1 16.0 14.7 67 3.8 SSW 35 52 19 28 1009.3 - 0.0
15/09:57pm 21.1 16.5 15.0 68 3.6 SSW 33 52 18 28 1009.3 - 0.0
15/09:30pm 20.9 15.4 14.8 68 3.6 SSW 37 48 20 26 1009.2 - 0.0
15/09:00pm 20.9 14.6 14.5 67 3.7 SSW 41 50 22 27 1009.0 1009.0 0.0
15/08:30pm 21.2 16.4 15.5 70 3.4 SSW 35 50 19 27 1008.9 - 0.0
15/08:00pm 21.1 15.7 15.0 68 3.6 SSW 37 50 20 27 1008.7 - 0.0
15/07:30pm 21.2 15.9 15.3 69 3.5 SSW 37 48 20 26 1008.3 - 0.0
15/07:00pm 21.5 16.9 15.1 67 3.8 SSW 33 44 18 24 1008.0 - 0.0
15/06:30pm 22.2 17.2 16.2 69 3.6 SSW 37 48 20 26 1007.8 - 0.0
15/06:00pm 22.7 17.9 15.5 64 4.3 SSW 35 43 19 23 1007.7 1007.7 0.0
15/05:30pm 23.2 18.7 15.5 62 4.6 SSW 33 44 18 24 1007.8 - 0.0
15/05:00pm 23.7 19.3 15.7 61 4.8 SSW 33 44 18 24 1007.8 - 0.0
15/04:30pm 24.0 19.0 15.0 57 5.4 SSW 35 43 19 23 1007.8 - 0.0
15/04:00pm 24.5 20.1 15.7 58 5.3 SSW 33 43 18 23 1007.9 - 0.0
15/03:30pm 24.4 19.9 15.3 57 5.5 SSW 33 43 18 23 1007.9 - 0.0
15/03:00pm 24.7 20.5 16.2 59 5.2 SSW 33 41 18 22 1008.0 1008.0 0.0
15/02:30pm 24.0 19.6 15.2 58 5.3 SSW 32 41 17 22 1008.3 - 0.0
15/02:00pm 24.9 20.4 15.5 56 5.7 SSW 33 41 18 22 1008.5 - 0.0
15/01:30pm 23.5 18.6 15.3 60 4.9 SSW 35 41 19 22 1008.7 - 0.0
15/01:00pm 25.3 20.2 14.7 51 6.3 SSW 35 44 19 24 1009.0 - 0.0
15/12:30pm 24.4 20.2 15.6 58 5.3 SSW 32 41 17 22 1009.4 - 0.0
15/12:00pm 23.7 19.4 15.5 60 4.9 SSW 32 43 17 23 1009.6 1009.6 0.0
15/11:30am 25.0 20.7 15.3 55 5.8 SSW 32 43 17 23 1009.8 - 0.0
15/11:00am 23.3 19.4 15.4 61 4.7 SSW 30 39 16 21 1009.9 - 0.0
15/10:30am 22.8 18.8 16.1 66 4.1 SSW 32 39 17 21 1010.0 - 0.0
15/10:00am 22.7 18.4 15.5 64 4.3 SSW 32 39 17 21 1010.1 - 0.0
15/09:30am 22.6 18.5 15.9 66 4.0 SSW 32 43 17 23 1010.2 - 0.0
15/09:00am 21.7 17.6 16.4 72 3.2 SSW 33 43 18 23 1010.2 1010.2 0.0
15/08:30am 21.6 18.0 16.3 72 3.2 SW 30 39 16 21 1010.0 - 0.0
15/08:00am 21.5 17.6 15.6 69 3.5 SSW 30 43 16 23 1009.9 - 0.0
15/07:30am 21.4 17.4 16.1 72 3.2 SSW 32 43 17 23 1009.8 - 0.0
15/07:00am 21.1 17.1 16.1 73 3.0 SSW 32 39 17 21 1009.5 - 0.0
15/06:30am 21.0 17.0 16.2 74 2.9 SSW 32 43 17 23 1009.4 - 0.0
15/06:00am 21.1 18.2 17.1 78 2.4 SSW 28 39 15 21 1009.0 1009.0 0.0
15/05:30am 20.9 17.5 16.7 77 2.5 SSW 30 39 16 21 1008.5 - 0.0
15/05:00am 20.9 17.1 16.7 77 2.5 SSW 32 41 17 22 1008.1 - 0.0
15/04:30am 20.9 17.2 16.9 78 2.4 SSW 32 43 17 23 1007.5 - 0.0
15/04:00am 20.8 17.0 16.8 78 2.4 SSW 32 43 17 23 1007.1 - 0.0
15/03:30am 21.0 17.4 17.2 79 2.3 SW 32 43 17 23 1007.1 - 0.0
15/03:00am 21.0 17.5 17.4 80 2.2 SSW 32 37 17 20 1007.1 1007.1 0.0
15/02:30am 21.1 18.1 17.7 81 2.1 SSW 30 37 16 20 1007.0 - 0.0
15/02:00am 21.0 17.4 17.2 79 2.3 SSW 32 41 17 22 1007.3 - 0.0
15/01:30am 21.3 17.2 17.3 78 2.5 SSW 35 46 19 25 1007.7 - 0.0
15/01:00am 21.3 17.7 17.1 77 2.6 SSW 32 43 17 23 1007.9 - 0.0
15/12:30am 21.5 17.9 17.7 79 2.3 SSW 33 46 18 25 1008.2 - 0.0
15/12:00am 21.5 18.0 17.9 80 2.2 SW 33 43 18 23 1008.5 1008.5 0.0
 
Date/Time
WST
Temp
°C
App
Temp
°C
Dew
Point
°C
Rel
Hum
%
Delta-T
°C
Wind Press
QNH
hPa
Press
MSL
hPa
Rain since
9am
mm
Dir  Spd
km/h
Gust
km/h
Spd
kts
Gust
kts
14/11:30pm 21.6 18.1 18.0 80 2.2 SSW 33 43 18 23 1008.8 - 0.0
14/11:00pm 21.6 18.3 18.0 80 2.2 SSW 32 43 17 23 1008.7 - 0.0
14/10:30pm 21.7 19.3 18.3 81 2.1 SSW 28 39 15 21 1009.0 - 0.0
14/10:00pm 21.7 18.4 17.9 79 2.4 SSW 32 44 17 24 1009.0 - 0.0
14/09:30pm 21.8 18.6 18.2 80 2.2 SW 32 44 17 24 1008.7 - 0.0
14/09:00pm 22.0 19.6 18.2 79 2.4 SW 28 39 15 21 1008.4 1008.4 0.0
14/08:30pm 22.1 18.9 18.1 78 2.5 SW 32 39 17 21 1008.1 - 0.0
14/08:00pm 22.1 20.0 18.1 78 2.5 SW 26 33 14 18 1008.0 - 0.0
14/07:30pm 22.3 21.0 18.1 77 2.6 SW 22 32 12 17 1007.8 - 0.0
14/07:00pm 22.7 20.8 18.5 77 2.6 SW 26 33 14 18 1007.8 - 0.0

Other Formats:

Comma delimited format used in spreadsheet applications
http://www.bom.gov.au/fwo/IDW60801/IDW60801.94300.axf

JavaScript Object Notation format (JSON) in row-major order
http://www.bom.gov.au/fwo/IDW60801/IDW60801.94300.json